Jack Brusco — WDC3066 — position and weather

sailwx.info

Track history (hours):
 
Tides and Currents Weather Stations Pressure Air Temp Water Temp Dewpoint Dewpoint Depression Visibility Wind Speed Wind Dir Waves Ship Positions

Jack Brusco

Owner: Brusco Tug & Barge, Inc., Longview, WA. More information available from US FCC via Universal Licensing System and Coast Guard Vessel Documentation Center.

Last reported at 2017-Feb-26 15:30 UTC. Time now 2017-Feb-27 15:50 UTC.
Position N 45°11' W 124°22'.

Length 36 m; draft 5.2 m.

Type: Tug. MMSI: 3699086.

Date/timePositionNaut miles runAvg speedWind from/ knotsBaromVisibWave heightAir tempDewpointWater temp
2017-Feb-26 15:30N 45°11' W 124°22'6 6.1
2017-Feb-26 14:33N 45°16' W 124°19'5 5.1
2017-Feb-26 13:34N 45°21' W 124°17'5 4.9
2017-Feb-26 12:33N 45°26' W 124°15'5 5.1
2017-Feb-26 11:33N 45°31' W 124°13'5 5.2
2017-Feb-26 10:34N 45°36' W 124°13'6 5.6
2017-Feb-26 09:33N 45°41' W 124°14'6 6.4
2017-Feb-26 08:33N 45°48' W 124°16'7 6.7
2017-Feb-26 07:33N 45°54' W 124°17'7 6.8
2017-Feb-26 06:33N 46°01' W 124°19'6 6.3
2017-Feb-26 05:33N 46°07' W 124°18'6 5.9
2017-Feb-26 04:33N 46°13' W 124°15'5 5.3
2017-Feb-26 03:33N 46°17' W 124°19'5 5.3
2017-Feb-26 02:33N 46°23' W 124°21'7 6.5
2017-Feb-26 01:33N 46°29' W 124°22'6 6.4
2017-Feb-26 00:34N 46°35' W 124°24'7 6.7
2017-Feb-25 23:33N 46°42' W 124°26'7 7.2
2017-Feb-25 22:33N 46°49' W 124°28'8 7.7
2017-Feb-25 21:33N 46°57' W 124°30'7 6.9
2017-Feb-25 20:31N 47°03' W 124°33'72 7.1
2017-Feb-25 10:20N 48°13' W 124°59'6 7.4
2017-Feb-25 09:33N 48°18' W 125°03'7 7.5
2017-Feb-25 08:33N 48°25' W 125°08'7 7.4
2017-Feb-25 07:33N 48°32' W 125°10'7 6.5
2017-Feb-25 06:30N 48°39' W 125°14'7 7.3
2017-Feb-25 05:34N 48°45' W 125°18'7 6.7
2017-Feb-25 04:33N 48°50' W 125°11'16 7.5
2017-Feb-25 02:22N 49°00' W 124°52'6 7.8
2017-Feb-25 01:33N 49°07' W 124°49'7 6.9
2017-Feb-25 00:33N 49°13' W 124°50'0 0.3
2017-Feb-24 23:33N 49°14' W 124°50'0 0.0
2017-Feb-24 22:33N 49°14' W 124°50'0 0.0
2017-Feb-24 21:33N 49°14' W 124°50'0 0.0
2017-Feb-24 20:33N 49°14' W 124°50'0 0.0
2017-Feb-24 19:33N 49°14' W 124°50'0 0.0
2017-Feb-24 18:33N 49°14' W 124°50'0 0.0
2017-Feb-24 17:33N 49°14' W 124°50'0 0.0
2017-Feb-24 16:33N 49°14' W 124°50'0 0.0
2017-Feb-24 15:33N 49°14' W 124°50'0 0.0
2017-Feb-24 14:33N 49°14' W 124°50'0 0.0
2017-Feb-24 13:34N 49°14' W 124°50'0 0.0
2017-Feb-24 12:34N 49°14' W 124°50'0 0.0
2017-Feb-24 11:33N 49°14' W 124°50'0 0.0
2017-Feb-24 10:33N 49°14' W 124°50'0 0.0
2017-Feb-24 09:33N 49°14' W 124°50'0 0.0
2017-Feb-24 08:33N 49°14' W 124°50'0 0.0
2017-Feb-24 07:33N 49°14' W 124°50'0 0.0
2017-Feb-24 06:34N 49°14' W 124°50'0 0.0
2017-Feb-24 05:33N 49°14' W 124°50'0 0.0
2017-Feb-24 04:33N 49°14' W 124°50'0 0.0
2017-Feb-24 03:33N 49°14' W 124°50'0 0.0
2017-Feb-24 02:33N 49°14' W 124°50'0 0.0
2017-Feb-24 01:33N 49°14' W 124°50'0 0.0
2017-Feb-24 00:34N 49°14' W 124°50'0 0.0
2017-Feb-23 23:33N 49°14' W 124°50'0 0.0
2017-Feb-23 22:33N 49°14' W 124°50'0 0.0
2017-Feb-23 21:33N 49°14' W 124°50'0 0.0
2017-Feb-23 20:33N 49°14' W 124°50'0 0.0
2017-Feb-23 19:33N 49°14' W 124°50'0 0.0
2017-Feb-23 18:33N 49°14' W 124°50'0 0.0
2017-Feb-23 17:33N 49°14' W 124°50'0 0.0
2017-Feb-23 16:33N 49°14' W 124°50'0 0.1
2017-Feb-23 15:33N 49°14' W 124°50'3 3.1
2017-Feb-23 14:33N 49°10' W 124°49'9 7.0
2017-Feb-23 13:14N 49°01' W 124°52'14 6.6
2017-Feb-23 11:06N 48°52' W 125°08'3 5.2
2017-Feb-23 10:33N 48°50' W 125°10'7 7.2
2017-Feb-23 09:33N 48°44' W 125°17'10 8.2
2017-Feb-23 08:19N 48°34' W 125°12'6 8.0
2017-Feb-23 07:33N 48°29' W 125°08'10 8.0
2017-Feb-23 06:15N 48°19' W 125°02'72 7.5
2017-Feb-22 20:33N 47°09' W 124°35'8 7.7
2017-Feb-22 19:33N 47°02' W 124°32'7 7.3
2017-Feb-22 18:33N 46°55' W 124°27'7 7.3
2017-Feb-22 17:33N 46°52' W 124°18'7 7.2
2017-Feb-22 16:33N 46°46' W 124°25'7 7.2
2017-Feb-22 15:33N 46°39' W 124°25'8 7.6
2017-Feb-22 14:33N 46°32' W 124°23'8 7.8
2017-Feb-22 13:33N 46°24' W 124°20'9 9.2
2017-Feb-22 12:34N 46°15' W 124°18'8 7.8
2017-Feb-22 11:33N 46°07' W 124°18'8 8.3
2017-Feb-22 10:33N 45°59' W 124°18'9 8.7
2017-Feb-22 09:33N 45°50' W 124°16'9 9.3
2017-Feb-22 08:33N 45°41' W 124°14'9 9.4
2017-Feb-22 07:33N 45°32' W 124°13'10 9.7
2017-Feb-22 06:33N 45°22' W 124°17'10 9.7
2017-Feb-22 05:33N 45°13' W 124°21'  
2017-Feb-18 15:32N 45°17' W 124°19'7 7.4
2017-Feb-18 14:33N 45°24' W 124°16'7 6.7
2017-Feb-18 13:34N 45°30' W 124°13'7 6.7
2017-Feb-18 12:33N 45°37' W 124°13'7 6.8
2017-Feb-18 11:33N 45°44' W 124°14'8 7.6
2017-Feb-18 10:34N 45°51' W 124°16'7 7.1
2017-Feb-18 09:33N 45°58' W 124°18'7 7.0
2017-Feb-18 08:34N 46°05' W 124°20'7 7.0
2017-Feb-18 07:34N 46°11' W 124°15'6 5.8
2017-Feb-18 06:33N 46°16' W 124°19'7 6.6
2017-Feb-18 05:34N 46°23' W 124°21'7 7.1
2017-Feb-18 04:33N 46°30' W 124°23'8 7.6
2017-Feb-18 03:33N 46°37' W 124°25'7 7.4
2017-Feb-18 02:33N 46°44' W 124°27'7 6.8
2017-Feb-18 01:33N 46°51' W 124°29'7 7.1
2017-Feb-18 00:33N 46°58' W 124°31'7 7.0
2017-Feb-17 23:33N 47°05' W 124°34'68 6.0
2017-Feb-17 12:12N 48°11' W 124°58'4 5.8
2017-Feb-17 11:30N 48°15' W 124°60'6 6.1
2017-Feb-17 10:32N 48°20' W 125°03'6 6.2
2017-Feb-17 09:33N 48°25' W 125°08'5 5.0
2017-Feb-17 08:33N 48°30' W 125°10'6 5.7
2017-Feb-17 07:33N 48°36' W 125°12'6 5.7
2017-Feb-17 06:32N 48°41' W 125°15'5 5.5
2017-Feb-17 05:33N 48°46' W 125°17'5 4.6
2017-Feb-17 04:32N 48°49' W 125°12'7 7.2
2017-Feb-17 03:31N 48°54' W 125°04'10 7.9
2017-Feb-17 02:18N 49°00' W 124°52'6 8.0
2017-Feb-17 01:33N 49°06' W 124°50'7 7.1
2017-Feb-17 00:33N 49°13' W 124°49'1 0.7
2017-Feb-16 23:33N 49°14' W 124°50'0 0.0
2017-Feb-16 22:33N 49°14' W 124°50'0 0.0
2017-Feb-16 21:33N 49°14' W 124°50'0 0.0
2017-Feb-16 20:33N 49°14' W 124°50'0 0.0
2017-Feb-16 19:33N 49°14' W 124°50'0 0.0
2017-Feb-16 18:33N 49°14' W 124°50'0 0.0
2017-Feb-16 17:33N 49°14' W 124°50'0 0.0
2017-Feb-16 16:33N 49°14' W 124°50'0 0.0
2017-Feb-16 15:33N 49°14' W 124°50'  
Track history (hours):
 
Tides and Currents Weather Stations Pressure Air Temp Water Temp Dewpoint Dewpoint Depression Visibility Wind Speed Wind Dir Waves Ship Positions

Jack Brusco

Owner: Brusco Tug & Barge, Inc., Longview, WA. More information available from US FCC via Universal Licensing System and Coast Guard Vessel Documentation Center.

Last reported at 2017-Feb-26 15:30 UTC. Time now 2017-Feb-27 15:50 UTC.
Position N 45°11' W 124°22'.

Length 36 m; draft 5.2 m.

Type: Tug. MMSI: 3699086.

Date/timePositionNaut miles runAvg speedWind from/ knotsBaromVisibWave heightAir tempDewpointWater temp
2017-Feb-26 15:30N 45°11' W 124°22'6 6.1
2017-Feb-26 14:33N 45°16' W 124°19'5 5.1
2017-Feb-26 13:34N 45°21' W 124°17'5 4.9
2017-Feb-26 12:33N 45°26' W 124°15'5 5.1
2017-Feb-26 11:33N 45°31' W 124°13'5 5.2
2017-Feb-26 10:34N 45°36' W 124°13'6 5.6
2017-Feb-26 09:33N 45°41' W 124°14'6 6.4
2017-Feb-26 08:33N 45°48' W 124°16'7 6.7
2017-Feb-26 07:33N 45°54' W 124°17'7 6.8
2017-Feb-26 06:33N 46°01' W 124°19'6 6.3
2017-Feb-26 05:33N 46°07' W 124°18'6 5.9
2017-Feb-26 04:33N 46°13' W 124°15'5 5.3
2017-Feb-26 03:33N 46°17' W 124°19'5 5.3
2017-Feb-26 02:33N 46°23' W 124°21'7 6.5
2017-Feb-26 01:33N 46°29' W 124°22'6 6.4
2017-Feb-26 00:34N 46°35' W 124°24'7 6.7
2017-Feb-25 23:33N 46°42' W 124°26'7 7.2
2017-Feb-25 22:33N 46°49' W 124°28'8 7.7
2017-Feb-25 21:33N 46°57' W 124°30'7 6.9
2017-Feb-25 20:31N 47°03' W 124°33'72 7.1
2017-Feb-25 10:20N 48°13' W 124°59'6 7.4
2017-Feb-25 09:33N 48°18' W 125°03'7 7.5
2017-Feb-25 08:33N 48°25' W 125°08'7 7.4
2017-Feb-25 07:33N 48°32' W 125°10'7 6.5
2017-Feb-25 06:30N 48°39' W 125°14'7 7.3
2017-Feb-25 05:34N 48°45' W 125°18'7 6.7
2017-Feb-25 04:33N 48°50' W 125°11'16 7.5
2017-Feb-25 02:22N 49°00' W 124°52'6 7.8
2017-Feb-25 01:33N 49°07' W 124°49'7 6.9
2017-Feb-25 00:33N 49°13' W 124°50'0 0.3
2017-Feb-24 23:33N 49°14' W 124°50'0 0.0
2017-Feb-24 22:33N 49°14' W 124°50'0 0.0
2017-Feb-24 21:33N 49°14' W 124°50'0 0.0
2017-Feb-24 20:33N 49°14' W 124°50'0 0.0
2017-Feb-24 19:33N 49°14' W 124°50'0 0.0
2017-Feb-24 18:33N 49°14' W 124°50'0 0.0
2017-Feb-24 17:33N 49°14' W 124°50'0 0.0
2017-Feb-24 16:33N 49°14' W 124°50'0 0.0
2017-Feb-24 15:33N 49°14' W 124°50'0 0.0
2017-Feb-24 14:33N 49°14' W 124°50'0 0.0
2017-Feb-24 13:34N 49°14' W 124°50'0 0.0
2017-Feb-24 12:34N 49°14' W 124°50'0 0.0
2017-Feb-24 11:33N 49°14' W 124°50'0 0.0
2017-Feb-24 10:33N 49°14' W 124°50'0 0.0
2017-Feb-24 09:33N 49°14' W 124°50'0 0.0
2017-Feb-24 08:33N 49°14' W 124°50'0 0.0
2017-Feb-24 07:33N 49°14' W 124°50'0 0.0
2017-Feb-24 06:34N 49°14' W 124°50'0 0.0
2017-Feb-24 05:33N 49°14' W 124°50'0 0.0
2017-Feb-24 04:33N 49°14' W 124°50'0 0.0
2017-Feb-24 03:33N 49°14' W 124°50'0 0.0
2017-Feb-24 02:33N 49°14' W 124°50'0 0.0
2017-Feb-24 01:33N 49°14' W 124°50'0 0.0
2017-Feb-24 00:34N 49°14' W 124°50'0 0.0
2017-Feb-23 23:33N 49°14' W 124°50'0 0.0
2017-Feb-23 22:33N 49°14' W 124°50'0 0.0
2017-Feb-23 21:33N 49°14' W 124°50'0 0.0
2017-Feb-23 20:33N 49°14' W 124°50'0 0.0
2017-Feb-23 19:33N 49°14' W 124°50'0 0.0
2017-Feb-23 18:33N 49°14' W 124°50'0 0.0
2017-Feb-23 17:33N 49°14' W 124°50'0 0.0
2017-Feb-23 16:33N 49°14' W 124°50'0 0.1
2017-Feb-23 15:33N 49°14' W 124°50'3 3.1
2017-Feb-23 14:33N 49°10' W 124°49'9 7.0
2017-Feb-23 13:14N 49°01' W 124°52'14 6.6
2017-Feb-23 11:06N 48°52' W 125°08'3 5.2
2017-Feb-23 10:33N 48°50' W 125°10'7 7.2
2017-Feb-23 09:33N 48°44' W 125°17'10 8.2
2017-Feb-23 08:19N 48°34' W 125°12'6 8.0
2017-Feb-23 07:33N 48°29' W 125°08'10 8.0
2017-Feb-23 06:15N 48°19' W 125°02'72 7.5
2017-Feb-22 20:33N 47°09' W 124°35'8 7.7
2017-Feb-22 19:33N 47°02' W 124°32'7 7.3
2017-Feb-22 18:33N 46°55' W 124°27'7 7.3
2017-Feb-22 17:33N 46°52' W 124°18'7 7.2
2017-Feb-22 16:33N 46°46' W 124°25'7 7.2
2017-Feb-22 15:33N 46°39' W 124°25'8 7.6
2017-Feb-22 14:33N 46°32' W 124°23'8 7.8
2017-Feb-22 13:33N 46°24' W 124°20'9 9.2
2017-Feb-22 12:34N 46°15' W 124°18'8 7.8
2017-Feb-22 11:33N 46°07' W 124°18'8 8.3
2017-Feb-22 10:33N 45°59' W 124°18'9 8.7
2017-Feb-22 09:33N 45°50' W 124°16'9 9.3
2017-Feb-22 08:33N 45°41' W 124°14'9 9.4
2017-Feb-22 07:33N 45°32' W 124°13'10 9.7
2017-Feb-22 06:33N 45°22' W 124°17'10 9.7
2017-Feb-22 05:33N 45°13' W 124°21'  
2017-Feb-18 15:32N 45°17' W 124°19'7 7.4
2017-Feb-18 14:33N 45°24' W 124°16'7 6.7
2017-Feb-18 13:34N 45°30' W 124°13'7 6.7
2017-Feb-18 12:33N 45°37' W 124°13'7 6.8
2017-Feb-18 11:33N 45°44' W 124°14'8 7.6
2017-Feb-18 10:34N 45°51' W 124°16'7 7.1
2017-Feb-18 09:33N 45°58' W 124°18'7 7.0
2017-Feb-18 08:34N 46°05' W 124°20'7 7.0
2017-Feb-18 07:34N 46°11' W 124°15'6 5.8
2017-Feb-18 06:33N 46°16' W 124°19'7 6.6
2017-Feb-18 05:34N 46°23' W 124°21'7 7.1
2017-Feb-18 04:33N 46°30' W 124°23'8 7.6
2017-Feb-18 03:33N 46°37' W 124°25'7 7.4
2017-Feb-18 02:33N 46°44' W 124°27'7 6.8
2017-Feb-18 01:33N 46°51' W 124°29'7 7.1
2017-Feb-18 00:33N 46°58' W 124°31'7 7.0
2017-Feb-17 23:33N 47°05' W 124°34'68 6.0
2017-Feb-17 12:12N 48°11' W 124°58'4 5.8
2017-Feb-17 11:30N 48°15' W 124°60'6 6.1
2017-Feb-17 10:32N 48°20' W 125°03'6 6.2
2017-Feb-17 09:33N 48°25' W 125°08'5 5.0
2017-Feb-17 08:33N 48°30' W 125°10'6 5.7
2017-Feb-17 07:33N 48°36' W 125°12'6 5.7
2017-Feb-17 06:32N 48°41' W 125°15'5 5.5
2017-Feb-17 05:33N 48°46' W 125°17'5 4.6
2017-Feb-17 04:32N 48°49' W 125°12'7 7.2
2017-Feb-17 03:31N 48°54' W 125°04'10 7.9
2017-Feb-17 02:18N 49°00' W 124°52'6 8.0
2017-Feb-17 01:33N 49°06' W 124°50'7 7.1
2017-Feb-17 00:33N 49°13' W 124°49'1 0.7
2017-Feb-16 23:33N 49°14' W 124°50'0 0.0
2017-Feb-16 22:33N 49°14' W 124°50'0 0.0
2017-Feb-16 21:33N 49°14' W 124°50'0 0.0
2017-Feb-16 20:33N 49°14' W 124°50'0 0.0
2017-Feb-16 19:33N 49°14' W 124°50'0 0.0
2017-Feb-16 18:33N 49°14' W 124°50'0 0.0
2017-Feb-16 17:33N 49°14' W 124°50'0 0.0
2017-Feb-16 16:33N 49°14' W 124°50'0 0.0
2017-Feb-16 15:33N 49°14' W 124°50'  

Dump ship's entire track history